Time;durP1;ratioP1;P1;durP2;ratioP2;P2;SDS_P1;SDS_P2;PMS_P1;PMS_P2;Temp;Humidity;BMP_temperature;BMP_pressure;BME280_temperature;BME280_humidity;BME280_pressure;Samples;Min_cycle;Max_cycle;Signal;HPM_P1;HPM_P2
2021/08/24 00:00:59;;;;;;;;;0.67;0.00;;;;;26.02;45.07;101653.72;5074603;28;45369;-69
2021/08/24 00:03:24;;;;;;;;;0.00;0.00;;;;;26.00;45.22;101652.91;5074722;28;45531;-69
2021/08/24 00:05:50;;;;;;;;;0.33;0.33;;;;;25.99;44.97;101645.66;5074702;28;45366;-69
2021/08/24 00:08:17;;;;;;;;;0.00;0.00;;;;;26.01;44.99;101654.66;5056123;28;45422;-69
2021/08/24 00:10:50;;;;;;;;;0.00;0.00;;;;;26.02;44.63;101651.00;5075882;28;45642;-69
2021/08/24 00:13:16;;;;;;;;;0.00;0.00;;;;;26.02;45.41;101644.66;5059893;28;45423;-69
2021/08/24 00:15:43;;;;;;;;;0.00;0.00;;;;;26.00;44.87;101643.84;5059582;28;47052;-69
2021/08/24 00:18:10;;;;;;;;;0.00;0.00;;;;;25.99;45.16;101640.19;5078001;28;45561;-69
2021/08/24 00:20:41;;;;;;;;;0.00;0.00;;;;;25.99;44.93;101642.91;5078096;28;45462;-69
2021/08/24 00:23:09;;;;;;;;;0.00;0.00;;;;;25.99;45.11;101632.03;5078078;28;45618;-69
2021/08/24 00:25:36;;;;;;;;;0.00;0.00;;;;;25.98;45.01;101627.53;5077839;28;45407;-69
2021/08/24 00:28:01;;;;;;;;;0.00;0.00;;;;;25.97;44.97;101625.72;5077612;28;45436;-69
2021/08/24 00:30:27;;;;;;;;;1.00;0.00;;;;;25.95;45.25;101616.72;5059216;28;45872;-69
2021/08/24 00:32:52;;;;;;;;;0.00;0.00;;;;;25.95;44.83;101624.91;5078121;28;45425;-69
2021/08/24 00:35:18;;;;;;;;;0.00;0.00;;;;;25.93;44.75;101618.63;5077743;28;45408;-69
2021/08/24 00:37:44;;;;;;;;;0.00;0.00;;;;;25.94;45.13;101620.41;5076334;28;45303;-69
2021/08/24 00:40:11;;;;;;;;;0.00;0.00;;;;;25.93;45.28;101622.25;5077660;28;45673;-69
2021/08/24 00:42:37;;;;;;;;;0.00;0.00;;;;;25.93;45.03;101626.78;5077808;28;45505;-69
2021/08/24 00:45:06;;;;;;;;;0.00;0.00;;;;;25.93;44.94;101621.34;5077606;28;46186;-69
2021/08/24 00:47:33;;;;;;;;;0.33;0.33;;;;;25.93;45.12;101629.50;5077599;28;45493;-69
2021/08/24 00:50:05;;;;;;;;;0.00;0.00;;;;;25.92;45.38;101627.75;5077366;28;45508;-69
2021/08/24 00:52:31;;;;;;;;;0.00;0.00;;;;;25.90;45.12;101625.06;5059563;28;45477;-69
2021/08/24 00:54:57;;;;;;;;;0.00;0.00;;;;;25.91;44.95;101625.97;5077257;28;45562;-69
2021/08/24 00:57:25;;;;;;;;;0.00;0.00;;;;;25.91;45.18;101624.13;5077213;28;45520;-69
2021/08/24 00:59:52;;;;;;;;;0.00;0.00;;;;;25.91;45.19;101628.69;5059144;28;45432;-69
2021/08/24 01:02:20;;;;;;;;;0.00;0.00;;;;;25.91;45.07;101620.50;5077475;27;45480;-68
2021/08/24 01:04:50;;;;;;;;;0.00;0.00;;;;;25.90;45.15;101625.06;5056588;28;48389;-68
2021/08/24 01:07:22;;;;;;;;;0.00;0.00;;;;;25.91;45.19;101625.97;5074499;28;45339;-68
2021/08/24 01:09:48;;;;;;;;;0.00;0.00;;;;;25.90;45.17;101619.63;5055863;28;45445;-68
2021/08/24 01:12:44;;;;;;;;;0.00;0.00;;;;;25.91;45.27;101615.06;5055727;28;45350;-68
2021/08/24 01:15:51;;;;;;;;;0.00;0.00;;;;;25.92;45.23;101619.56;5074447;28;45444;-68
2021/08/24 01:18:32;;;;;;;;;0.00;0.00;;;;;25.92;45.03;101609.56;4974776;28;45444;-68
2021/08/24 01:21:54;;;;;;;;;0.00;0.00;;;;;25.90;45.23;101608.72;4975024;28;45493;-68
2021/08/24 01:24:36;;;;;;;;;0.00;0.00;;;;;25.91;45.41;101610.47;4971620;28;45517;-68
2021/08/24 01:27:11;;;;;;;;;0.00;0.00;;;;;25.92;44.93;101606.81;4971621;28;47142;-68
2021/08/24 01:29:55;;;;;;;;;0.33;0.33;;;;;25.92;45.13;101606.81;4971517;28;45954;-69
2021/08/24 01:32:44;;;;;;;;;0.00;0.00;;;;;25.92;45.07;101611.41;4971567;28;45520;-68
2021/08/24 01:35:31;;;;;;;;;0.00;0.00;;;;;25.91;45.16;101613.22;4971805;28;45634;-68
2021/08/24 01:38:11;;;;;;;;;0.67;0.67;;;;;25.90;45.08;101610.56;4970355;28;45515;-68
2021/08/24 01:40:50;;;;;;;;;0.00;0.00;;;;;25.90;45.36;101607.84;4971566;28;45814;-67
2021/08/24 01:43:22;;;;;;;;;0.67;0.67;;;;;25.91;45.01;101604.16;4971354;28;45585;-68
2021/08/24 01:45:56;;;;;;;;;0.00;0.00;;;;;25.84;45.40;101598.00;4971823;28;45763;-67
2021/08/24 01:48:32;;;;;;;;;1.00;0.00;;;;;25.88;45.22;101598.78;4971042;28;47144;-68
2021/08/24 01:51:10;;;;;;;;;0.00;0.00;;;;;25.89;44.92;101600.56;4954835;28;45490;-68
2021/08/24 01:53:45;;;;;;;;;0.00;0.00;;;;;25.88;45.00;101599.69;4973549;28;45550;-68
2021/08/24 01:56:16;;;;;;;;;0.00;0.00;;;;;25.89;45.22;101604.16;5073801;28;45403;-68
2021/08/24 01:58:48;;;;;;;;;0.00;0.00;;;;;25.89;45.32;101612.34;5073773;28;45358;-68
2021/08/24 02:01:17;;;;;;;;;0.00;0.00;;;;;25.89;45.08;101606.91;5073495;28;45350;-68
2021/08/24 02:03:56;;;;;;;;;0.67;0.67;;;;;25.88;45.16;101606.97;5073812;28;45601;-68
2021/08/24 02:06:29;;;;;;;;;0.00;0.00;;;;;25.89;44.85;101603.28;5055345;28;45647;-67
2021/08/24 02:09:00;;;;;;;;;0.00;0.00;;;;;25.88;44.92;101612.44;5072994;28;46855;-68
2021/08/24 02:11:30;;;;;;;;;1.00;1.00;;;;;25.85;45.02;101607.94;5055316;28;46138;-68
2021/08/24 02:13:59;;;;;;;;;0.00;0.00;;;;;25.85;44.99;101616.13;5055114;28;45542;-68
2021/08/24 02:16:30;;;;;;;;;0.00;0.00;;;;;25.83;45.27;101608.97;5055179;28;45555;-67
2021/08/24 02:19:09;;;;;;;;;1.67;1.67;;;;;25.83;45.11;101600.78;5073373;28;46080;-67
2021/08/24 02:21:43;;;;;;;;;0.00;0.00;;;;;25.80;45.36;101596.34;5054736;28;45489;-68
2021/08/24 02:24:14;;;;;;;;;0.00;0.00;;;;;25.83;45.06;101601.66;5054775;28;45379;-68
2021/08/24 02:26:41;;;;;;;;;0.00;0.00;;;;;25.84;45.39;101599.84;5073526;28;45472;-68
2021/08/24 02:29:08;;;;;;;;;0.00;0.00;;;;;25.81;45.18;101598.09;5054582;28;46976;-67
2021/08/24 02:31:44;;;;;;;;;0.00;0.00;;;;;25.85;45.25;101615.25;5073079;28;45524;-67
2021/08/24 02:34:30;;;;;;;;;0.00;0.00;;;;;25.84;45.10;101608.91;5053659;28;45461;-67
2021/08/24 02:36:55;;;;;;;;;1.00;1.00;;;;;25.83;45.39;101606.22;5072701;28;45468;-67
2021/08/24 02:39:34;;;;;;;;;0.00;0.00;;;;;25.81;45.33;101606.28;5072324;28;45424;-68
2021/08/24 02:42:12;;;;;;;;;0.00;0.00;;;;;25.84;45.53;101613.47;5054365;28;45528;-67
2021/08/24 02:44:43;;;;;;;;;0.00;0.00;;;;;25.81;45.10;101609.00;5073121;28;45430;-68
2021/08/24 02:47:09;;;;;;;;;0.00;0.00;;;;;25.82;45.11;101610.81;5073002;28;45707;-68
2021/08/24 02:49:35;;;;;;;;;0.00;0.00;;;;;25.83;45.04;101612.56;5072831;28;45720;-68
2021/08/24 02:52:05;;;;;;;;;0.00;0.00;;;;;25.83;45.31;101611.69;5072700;28;45450;-68
2021/08/24 02:54:33;;;;;;;;;0.00;0.00;;;;;25.82;45.32;101612.66;5072928;28;45422;-69
2021/08/24 02:57:00;;;;;;;;;0.00;0.00;;;;;25.81;45.34;101609.00;5072851;28;45507;-68
2021/08/24 02:59:29;;;;;;;;;0.00;0.00;;;;;25.83;45.28;101611.69;5072580;28;45393;-68
2021/08/24 03:01:55;;;;;;;;;0.33;0.33;;;;;25.81;45.44;101602.66;5072436;27;45496;-68
2021/08/24 03:04:21;;;;;;;;;0.33;0.33;;;;;25.82;45.29;101615.38;5072773;28;45328;-68
2021/08/24 03:06:53;;;;;;;;;0.00;0.00;;;;;25.81;45.14;101613.56;5072793;28;45408;-68
2021/08/24 03:09:22;;;;;;;;;0.33;0.33;;;;;25.80;45.23;101606.38;5072350;28;45409;-67
2021/08/24 03:12:00;;;;;;;;;0.00;0.00;;;;;25.81;45.48;101608.13;5072576;28;45439;-68
2021/08/24 03:14:35;;;;;;;;;0.33;0.33;;;;;25.83;45.31;101606.22;5072834;28;45484;-68
2021/08/24 03:17:12;;;;;;;;;1.00;1.00;;;;;25.82;45.18;101605.34;5072485;28;45477;-68
2021/08/24 03:19:42;;;;;;;;;0.00;0.00;;;;;25.79;45.14;101599.13;5072461;28;45425;-68
2021/08/24 03:22:09;;;;;;;;;0.00;0.00;;;;;25.80;45.44;101609.09;5054286;28;45378;-68
2021/08/24 03:24:35;;;;;;;;;0.00;0.00;;;;;25.78;45.35;101587.34;5072556;28;45520;-68
2021/08/24 03:27:04;;;;;;;;;0.00;0.00;;;;;25.79;45.21;101588.22;5072435;28;45440;-68
2021/08/24 03:29:29;;;;;;;;;1.00;1.00;;;;;25.78;45.46;101602.81;5072278;28;46112;-68
2021/08/24 03:31:56;;;;;;;;;0.67;0.67;;;;;25.78;45.34;101591.91;5053652;28;45699;-68
2021/08/24 03:34:23;;;;;;;;;1.33;1.33;;;;;25.77;45.26;101595.56;5072284;28;45686;-68
2021/08/24 03:36:49;;;;;;;;;1.00;1.00;;;;;25.77;45.24;101595.56;5072341;28;45497;-68
2021/08/24 03:39:15;;;;;;;;;0.33;0.33;;;;;25.74;45.16;101594.72;5070709;28;46360;-68
2021/08/24 03:41:40;;;;;;;;;0.00;0.00;;;;;25.73;45.13;101595.69;5071977;28;45515;-69
2021/08/24 03:44:06;;;;;;;;;1.00;0.00;;;;;25.75;45.18;101593.78;5053410;28;45463;-68
2021/08/24 03:46:31;;;;;;;;;0.00;0.00;;;;;25.75;45.36;101596.50;5052854;28;45497;-68
2021/08/24 03:48:57;;;;;;;;;0.00;0.00;;;;;25.75;45.16;101596.50;5072216;28;45408;-68
2021/08/24 03:51:22;;;;;;;;;1.00;0.00;;;;;25.75;45.33;101598.31;5072068;28;45552;-68
2021/08/24 03:53:48;;;;;;;;;0.67;0.67;;;;;25.76;44.96;101600.13;5072375;28;45627;-68
2021/08/24 03:56:14;;;;;;;;;0.00;0.00;;;;;25.76;45.16;101600.13;5072245;28;45428;-68
2021/08/24 03:58:39;;;;;;;;;1.00;1.00;;;;;25.65;45.16;101581.44;5072131;28;45548;-68
2021/08/24 04:01:11;;;;;;;;;0.00;0.00;;;;;25.77;45.18;101599.16;5053713;28;45512;-68
2021/08/24 04:03:36;;;;;;;;;1.33;1.33;;;;;25.72;45.43;101593.00;5072539;28;45468;-67
2021/08/24 04:06:03;;;;;;;;;0.67;0.67;;;;;25.74;45.08;101597.44;5071820;28;45444;-67
2021/08/24 04:08:29;;;;;;;;;0.00;0.00;;;;;25.73;45.17;101601.13;5053107;28;47191;-67
2021/08/24 04:10:55;;;;;;;;;0.00;0.00;;;;;25.74;45.46;101602.91;5053205;28;46344;-68
2021/08/24 04:13:22;;;;;;;;;1.00;1.00;;;;;25.74;45.44;101602.91;5071466;28;45440;-68
2021/08/24 04:15:48;;;;;;;;;0.00;0.00;;;;;25.75;45.36;101604.69;5071856;28;45480;-68
2021/08/24 04:18:13;;;;;;;;;0.00;0.00;;;;;25.75;45.39;101604.69;5052991;28;47080;-68
2021/08/24 04:20:40;;;;;;;;;0.00;0.00;;;;;25.75;45.32;101609.22;5053345;28;45391;-68
2021/08/24 04:23:06;;;;;;;;;1.00;1.00;;;;;25.75;45.57;101609.22;5072032;28;45473;-68
2021/08/24 04:25:31;;;;;;;;;0.00;0.00;;;;;25.74;45.25;101612.91;5072436;28;44996;-68
2021/08/24 04:27:57;;;;;;;;;0.67;0.67;;;;;25.74;45.33;101619.25;5071508;28;45488;-68
2021/08/24 04:30:22;;;;;;;;;0.00;0.00;;;;;25.74;45.58;101613.78;5071552;28;45468;-68
2021/08/24 04:32:48;;;;;;;;;0.00;0.00;;;;;25.75;45.36;101615.59;5071609;28;45572;-68
2021/08/24 04:35:16;;;;;;;;;0.67;0.67;;;;;25.75;45.62;101620.13;5071760;28;45408;-68
2021/08/24 04:37:42;;;;;;;;;0.67;0.67;;;;;25.74;45.41;101612.91;5067825;28;47152;-68
2021/08/24 04:40:14;;;;;;;;;0.00;0.00;;;;;25.77;45.23;101617.34;5070870;28;45446;-67
2021/08/24 04:42:40;;;;;;;;;1.00;1.00;;;;;25.75;45.15;101626.50;5046713;28;45802;-68
2021/08/24 04:45:06;;;;;;;;;1.00;1.00;;;;;25.69;45.17;101604.91;5051055;28;45472;-68
2021/08/24 04:47:32;;;;;;;;;0.00;0.00;;;;;25.73;45.59;101616.56;5032408;28;47186;-68
2021/08/24 04:49:58;;;;;;;;;0.00;0.00;;;;;25.73;45.26;101620.22;5050800;28;45528;-68
2021/08/24 04:52:23;;;;;;;;;1.00;1.00;;;;;25.74;45.40;101618.38;5032190;28;45426;-68
2021/08/24 04:54:49;;;;;;;;;0.00;0.00;;;;;25.74;45.24;101619.25;5051039;28;45461;-68
2021/08/24 04:57:15;;;;;;;;;0.00;0.00;;;;;25.73;45.33;101614.75;5053006;28;46690;-69
2021/08/24 04:59:41;;;;;;;;;0.00;0.00;;;;;25.74;45.68;101621.97;5054290;28;45548;-68
2021/08/24 05:02:06;;;;;;;;;0.00;0.00;;;;;25.75;45.28;101621.03;5054512;28;45419;-68
2021/08/24 05:04:32;;;;;;;;;0.00;0.00;;;;;25.76;45.31;101627.38;5052754;28;45691;-67
2021/08/24 05:06:57;;;;;;;;;0.00;0.00;;;;;25.72;45.30;101626.59;5035838;28;48435;-68
2021/08/24 05:09:23;;;;;;;;;0.00;0.00;;;;;25.74;45.25;101635.59;5054090;28;45447;-68
2021/08/24 05:11:48;;;;;;;;;1.00;1.00;;;;;25.73;45.12;101627.47;5054503;28;45432;-68
2021/08/24 05:14:21;;;;;;;;;1.33;1.33;;;;;25.75;45.22;101631.94;5054369;28;45528;-68
2021/08/24 05:16:46;;;;;;;;;0.00;0.00;;;;;25.74;45.38;101635.59;5052384;28;48470;-68
2021/08/24 05:19:11;;;;;;;;;0.00;0.00;;;;;25.73;45.26;101641.09;5053820;28;45437;-67
2021/08/24 05:21:37;;;;;;;;;0.00;0.00;;;;;25.73;45.20;101631.09;5054115;28;45843;-69
2021/08/24 05:24:03;;;;;;;;;0.00;0.00;;;;;25.73;45.36;101636.56;5052349;28;45418;-68
2021/08/24 05:26:29;;;;;;;;;1.00;0.00;;;;;25.73;45.24;101630.19;5053904;28;45374;-68
2021/08/24 05:28:55;;;;;;;;;0.33;0.33;;;;;25.72;45.09;101634.75;5054161;28;45379;-68
2021/08/24 05:31:20;;;;;;;;;0.00;0.00;;;;;25.73;45.27;101632.91;5053476;28;45339;-68
2021/08/24 05:33:46;;;;;;;;;0.00;0.00;;;;;25.75;45.29;101641.91;5054206;28;45387;-68
2021/08/24 05:36:12;;;;;;;;;0.33;0.00;;;;;25.75;45.07;101637.38;5035146;28;46654;-68
2021/08/24 05:38:39;;;;;;;;;0.00;0.00;;;;;25.74;45.30;101640.16;5052448;28;45825;-68
2021/08/24 05:41:05;;;;;;;;;0.00;0.00;;;;;25.77;45.49;101648.22;5053871;28;45645;-68
2021/08/24 05:43:31;;;;;;;;;0.00;0.00;;;;;25.77;45.27;101642.75;5035568;28;45535;-68
2021/08/24 05:46:01;;;;;;;;;0.00;0.00;;;;;25.76;45.26;101643.72;5053627;28;46053;-68
2021/08/24 05:48:28;;;;;;;;;0.00;0.00;;;;;25.78;45.51;101644.56;5053921;28;45684;-68
2021/08/24 05:50:53;;;;;;;;;0.00;0.00;;;;;25.78;45.58;101646.41;5053585;28;45602;-67
2021/08/24 05:53:19;;;;;;;;;0.00;0.00;;;;;25.78;45.15;101650.00;5053939;28;45444;-68
2021/08/24 05:55:44;;;;;;;;;0.00;0.00;;;;;25.75;45.03;101640.13;5053724;28;45517;-68
2021/08/24 05:58:12;;;;;;;;;0.00;0.00;;;;;25.78;45.17;101644.56;5051939;28;45545;-68
2021/08/24 06:00:39;;;;;;;;;0.00;0.00;;;;;25.78;45.36;101644.56;5053732;28;45467;-67
2021/08/24 06:03:05;;;;;;;;;0.00;0.00;;;;;25.79;45.45;101645.44;5053339;28;45354;-67
2021/08/24 06:05:30;;;;;;;;;0.00;0.00;;;;;25.80;45.01;101649.97;5035413;28;48185;-68
2021/08/24 06:07:55;;;;;;;;;0.00;0.00;;;;;25.81;45.21;101652.59;5052244;28;45456;-68
2021/08/24 06:10:22;;;;;;;;;0.00;0.00;;;;;25.80;45.43;101656.28;5053086;28;45476;-68
2021/08/24 06:12:47;;;;;;;;;0.00;0.00;;;;;25.80;45.14;101649.97;5035604;28;45761;-67
2021/08/24 06:15:14;;;;;;;;;16.67;14.33;;;;;25.79;44.73;101653.63;5052796;28;45608;-68
2021/08/24 06:17:41;;;;;;;;;12.33;12.33;;;;;25.62;44.73;101651.47;5053681;28;45456;-69
2021/08/24 06:20:08;;;;;;;;;16.67;14.67;;;;;25.43;45.06;101654.84;5053863;28;45384;-68
2021/08/24 06:22:35;;;;;;;;;8.00;8.00;;;;;25.19;45.47;101650.13;5055469;28;45604;-67
2021/08/24 06:25:01;;;;;;;;;16.00;15.67;;;;;24.99;45.43;101654.41;5053328;28;46169;-69
2021/08/24 06:27:26;;;;;;;;;17.67;17.67;;;;;24.82;45.41;101651.31;5051678;28;46126;-68
2021/08/24 06:29:52;;;;;;;;;19.00;17.00;;;;;24.66;46.01;101654.53;5053369;28;45903;-68
2021/08/24 06:32:36;;;;;;;;;16.00;16.00;;;;;24.53;45.91;101647.66;5034642;28;45798;-67
2021/08/24 06:38:23;;;;;;;;;16.33;16.00;;;;;24.17;46.59;101651.34;5052643;28;45825;-67
2021/08/24 06:40:48;;;;;;;;;16.67;16.67;;;;;24.10;47.07;101646.16;5053040;28;46498;-68
2021/08/24 06:43:15;;;;;;;;;13.33;13.33;;;;;24.00;46.99;101648.22;5055852;28;45407;-68
2021/08/24 06:45:40;;;;;;;;;12.67;12.67;;;;;23.90;47.33;101653.00;5055404;28;45420;-68
2021/08/24 06:48:08;;;;;;;;;16.00;13.00;;;;;23.82;47.57;101665.03;5055189;28;45412;-68
2021/08/24 06:50:35;;;;;;;;;20.67;18.67;;;;;23.72;47.59;101656.19;5055467;28;45514;-69
2021/08/24 06:53:02;;;;;;;;;12.67;12.67;;;;;23.69;48.01;101665.31;5055450;28;45520;-68
2021/08/24 06:55:31;;;;;;;;;14.33;14.33;;;;;23.69;48.37;101665.31;5053482;28;47151;-68
2021/08/24 06:57:57;;;;;;;;;17.67;17.33;;;;;23.67;47.64;101667.19;5054478;28;45399;-68
2021/08/24 07:00:25;;;;;;;;;16.33;16.33;;;;;23.65;48.41;101673.56;5055254;28;45475;-68
2021/08/24 07:02:53;;;;;;;;;9.67;9.67;;;;;23.59;48.63;101661.03;5053056;28;45523;-68
2021/08/24 07:05:20;;;;;;;;;16.33;15.67;;;;;23.66;48.26;101680.78;5053822;28;45852;-69
2021/08/24 07:07:46;;;;;;;;;12.00;11.00;;;;;23.68;48.85;101668.06;5054227;28;45391;-69
2021/08/24 07:10:14;;;;;;;;;12.67;10.67;;;;;23.74;48.71;101670.63;5054493;28;45349;-69
2021/08/24 07:12:41;;;;;;;;;14.33;12.00;;;;;23.78;48.50;101674.19;5055285;28;45832;-69
2021/08/24 07:15:08;;;;;;;;;13.00;12.00;;;;;23.79;48.64;101665.09;5052986;28;48106;-69
2021/08/24 07:17:34;;;;;;;;;10.67;10.67;;;;;23.81;48.45;101668.66;5055060;28;45449;-69
2021/08/24 07:20:00;;;;;;;;;12.00;10.67;;;;;23.82;48.32;101665.03;5054839;28;45418;-69
2021/08/24 07:22:25;;;;;;;;;12.33;11.67;;;;;23.81;48.31;101663.22;5055163;28;45393;-69
2021/08/24 07:24:51;;;;;;;;;9.33;8.67;;;;;23.87;48.47;101663.06;5053315;28;48284;-69
2021/08/24 07:27:16;;;;;;;;;10.00;9.67;;;;;23.84;48.06;101668.59;5054891;28;45358;-69
2021/08/24 07:29:41;;;;;;;;;12.67;10.67;;;;;23.88;48.14;101675.72;5054540;28;45358;-69
2021/08/24 07:32:09;;;;;;;;;16.67;15.67;;;;;23.86;47.81;101677.59;5055199;28;45422;-69
2021/08/24 07:34:37;;;;;;;;;17.33;16.33;;;;;23.80;48.38;101661.47;5053122;28;47060;-69
2021/08/24 07:37:03;;;;;;;;;10.67;10.00;;;;;23.76;48.12;101661.50;5052974;28;45659;-69
2021/08/24 07:39:28;;;;;;;;;12.00;10.00;;;;;23.78;48.70;101668.75;5053406;28;45389;-69
2021/08/24 07:41:54;;;;;;;;;10.00;9.00;;;;;23.82;48.81;101667.75;5055073;28;45450;-69
2021/08/24 07:44:23;;;;;;;;;11.33;10.67;;;;;23.83;48.29;101669.50;5054976;28;45746;-70
2021/08/24 07:46:49;;;;;;;;;14.33;14.33;;;;;23.84;48.67;101664.03;5061805;28;45396;-73
2021/08/24 07:49:15;;;;;;;;;17.33;15.33;;;;;23.88;48.91;101671.19;5074493;28;45458;-71
2021/08/24 07:51:41;;;;;;;;;18.33;17.33;;;;;23.91;48.51;101670.19;5074706;28;45415;-70
2021/08/24 07:54:06;;;;;;;;;12.67;12.67;;;;;23.93;48.67;101668.31;5074561;28;45940;-70
2021/08/24 07:56:31;;;;;;;;;17.00;15.67;;;;;23.95;48.23;101666.47;5074147;28;45387;-71
2021/08/24 07:58:57;;;;;;;;;12.67;12.67;;;;;23.97;48.33;101664.59;5075013;28;45537;-70
2021/08/24 08:01:22;;;;;;;;;10.00;10.00;;;;;23.99;48.39;101665.44;5074418;28;45480;-70
2021/08/24 08:03:47;;;;;;;;;10.33;10.33;;;;;24.01;48.56;101666.28;5074130;28;45492;-69
2021/08/24 08:06:13;;;;;;;;;14.33;14.33;;;;;24.04;48.36;101668.94;5055885;28;45879;-70
2021/08/24 08:08:39;;;;;;;;;17.00;13.00;;;;;24.06;48.40;101653.50;5073975;28;45341;-67
2021/08/24 08:11:05;;;;;;;;;14.67;14.67;;;;;24.06;48.15;101650.78;5074338;28;45366;-67
2021/08/24 08:13:30;;;;;;;;;12.67;12.67;;;;;24.06;47.65;101649.88;5074137;28;45385;-67
2021/08/24 08:15:56;;;;;;;;;15.33;14.00;;;;;24.09;47.94;101649.78;5074477;28;45401;-67
2021/08/24 08:18:21;;;;;;;;;10.00;10.00;;;;;24.09;47.86;101661.53;5074210;28;45402;-69
2021/08/24 08:20:48;;;;;;;;;10.33;10.33;;;;;24.14;48.07;101667.75;5056194;28;45934;-68
2021/08/24 08:23:16;;;;;;;;;14.00;13.67;;;;;24.10;47.39;101666.06;5074379;28;46503;-67
2021/08/24 08:25:43;;;;;;;;;11.33;11.00;;;;;24.06;47.84;101650.78;5073543;28;45600;-68
2021/08/24 08:28:08;;;;;;;;;14.33;14.00;;;;;24.08;48.06;101656.16;5074013;28;45432;-69
2021/08/24 08:30:34;;;;;;;;;10.33;10.33;;;;;24.07;48.15;101660.69;5074398;28;45429;-69
2021/08/24 08:33:01;;;;;;;;;9.33;8.00;;;;;24.08;47.94;101659.78;5059074;28;45422;-69
2021/08/24 08:35:28;;;;;;;;;11.33;10.00;;;;;24.11;47.71;101654.22;5077630;28;45444;-69
2021/08/24 08:37:53;;;;;;;;;10.67;9.67;;;;;24.19;47.46;101672.16;5076408;28;45704;-73
2021/08/24 08:40:29;;;;;;;;;12.33;11.67;;;;;24.25;47.28;101667.44;5077170;28;45436;-71
2021/08/24 08:43:03;;;;;;;;;11.00;10.33;;;;;24.27;47.22;101661.97;5074142;28;46519;-68
2021/08/24 08:45:42;;;;;;;;;10.33;10.33;;;;;24.30;47.33;101662.78;5076726;28;45408;-69
2021/08/24 08:48:08;;;;;;;;;8.00;8.00;;;;;24.33;46.88;101662.69;5058162;28;45393;-69
2021/08/24 08:50:43;;;;;;;;;9.00;9.00;;;;;24.37;47.07;101671.66;5058730;28;45636;-68
2021/08/24 08:53:37;;;;;;;;;10.33;8.67;;;;;24.42;46.95;101663.34;5077156;28;45472;-69
2021/08/24 08:56:12;;;;;;;;;10.00;10.00;;;;;24.44;47.01;101661.47;5077246;28;45433;-69
2021/08/24 08:58:58;;;;;;;;;7.33;7.33;;;;;24.47;46.78;101659.56;5077811;28;45446;-68
2021/08/24 09:01:47;;;;;;;;;10.33;8.67;;;;;24.52;46.33;101659.44;5077315;27;45387;-69
2021/08/24 09:04:23;;;;;;;;;9.67;8.00;;;;;24.57;46.47;101659.34;5076876;28;45464;-69
2021/08/24 09:06:53;;;;;;;;;8.33;8.33;;;;;24.59;46.00;101657.47;5076312;28;45457;-69
2021/08/24 09:09:20;;;;;;;;;6.00;6.00;;;;;24.65;46.16;101665.44;5077059;28;45533;-69
2021/08/24 09:11:49;;;;;;;;;5.00;4.00;;;;;24.68;45.98;101662.63;5076598;28;45432;-69
2021/08/24 09:14:34;;;;;;;;;7.00;7.00;;;;;24.65;45.76;101649.13;5076840;28;45432;-69
2021/08/24 09:17:10;;;;;;;;;7.00;7.00;;;;;24.68;45.84;101657.16;5076673;28;45520;-69
2021/08/24 09:19:47;;;;;;;;;6.67;6.67;;;;;24.71;45.90;101651.66;5076931;28;45397;-68
2021/08/24 09:22:15;;;;;;;;;8.33;6.67;;;;;24.75;45.36;101653.34;5077189;28;45505;-69
2021/08/24 09:24:41;;;;;;;;;6.00;5.67;;;;;24.74;45.22;101651.53;5058326;28;47418;-69
2021/08/24 09:27:43;;;;;;;;;11.00;9.67;;;;;24.74;45.03;101646.09;5057585;28;45611;-68
2021/08/24 09:30:09;;;;;;;;;8.33;7.00;;;;;24.74;45.34;101651.53;4993992;28;45593;-68
2021/08/24 09:32:36;;;;;;;;;4.33;4.33;;;;;24.79;45.45;101648.69;4994282;28;45387;-69
2021/08/24 09:35:11;;;;;;;;;4.67;4.67;;;;;24.85;45.21;101656.69;4993298;28;46594;-69
2021/08/24 09:37:39;;;;;;;;;6.33;6.33;;;;;24.88;44.77;101648.41;4992195;28;45401;-68
2021/08/24 09:40:10;;;;;;;;;6.33;5.33;;;;;24.88;44.28;101652.00;4990918;28;45599;-69
2021/08/24 09:42:43;;;;;;;;;6.00;6.00;;;;;24.91;44.54;101638.31;4994291;28;44954;-70
2021/08/24 09:45:29;;;;;;;;;6.00;6.00;;;;;24.91;44.48;101635.59;4993517;28;45574;-70
2021/08/24 09:47:57;;;;;;;;;5.00;5.00;;;;;24.99;44.25;101639.91;4994207;28;45815;-69
2021/08/24 09:50:47;;;;;;;;;6.67;6.67;;;;;25.03;44.13;101630.72;4994119;28;45662;-70
2021/08/24 09:53:35;;;;;;;;;4.67;4.67;;;;;25.08;44.08;101634.16;4992516;28;45656;-69
2021/08/24 09:56:07;;;;;;;;;5.00;5.00;;;;;25.10;43.33;101621.41;4992944;28;47070;-68
2021/08/24 09:58:39;;;;;;;;;3.33;3.33;;;;;25.14;43.33;101623.06;4993101;28;45561;-69
2021/08/24 10:01:12;;;;;;;;;5.00;5.00;;;;;25.13;43.09;101626.75;4993849;28;45543;-69
2021/08/24 10:03:44;;;;;;;;;4.33;4.33;;;;;25.15;43.07;101633.03;4993598;28;45439;-69
2021/08/24 10:06:22;;;;;;;;;4.00;4.00;;;;;25.18;42.79;101613.88;5020578;28;46247;-69
2021/08/24 10:08:55;;;;;;;;;5.00;5.00;;;;;25.18;42.75;101618.44;5035012;28;45428;-70
2021/08/24 10:11:31;;;;;;;;;4.00;4.00;;;;;25.19;42.38;101621.09;5055088;28;45418;-70
2021/08/24 10:14:08;;;;;;;;;6.00;3.67;;;;;25.20;42.33;101617.44;5055810;28;45377;-70
2021/08/24 10:16:34;;;;;;;;;3.33;3.33;;;;;25.27;41.80;101621.78;5055631;28;45452;-70
2021/08/24 10:19:08;;;;;;;;;4.33;4.33;;;;;25.32;41.66;101611.59;5051618;28;45447;-70
2021/08/24 10:21:51;;;;;;;;;4.00;4.00;;;;;25.34;41.47;101620.63;5054401;28;45532;-69
2021/08/24 10:24:26;;;;;;;;;5.00;4.33;;;;;25.34;41.09;101620.63;5056282;28;45380;-70
2021/08/24 10:26:56;;;;;;;;;4.00;4.00;;;;;25.37;41.46;101613.28;5056292;28;46470;-70
2021/08/24 10:29:31;;;;;;;;;4.00;4.00;;;;;25.41;41.12;101615.88;5054060;28;45514;-69
2021/08/24 10:32:26;;;;;;;;;5.00;5.00;;;;;25.45;40.49;101616.63;5054301;28;45871;-70
2021/08/24 10:34:52;;;;;;;;;4.67;4.67;;;;;25.38;40.57;101605.06;5053387;28;46015;-70
2021/08/24 10:37:23;;;;;;;;;7.00;6.33;;;;;25.39;40.20;101614.13;5052432;28;46926;-68
2021/08/24 10:39:52;;;;;;;;;6.00;6.00;;;;;25.35;40.59;101611.53;5053234;28;45690;-71
2021/08/24 10:42:27;;;;;;;;;5.00;5.00;;;;;25.39;40.51;101611.41;5049921;28;45885;-68
2021/08/24 10:44:56;;;;;;;;;5.33;5.33;;;;;25.40;40.40;101610.47;5034095;28;45509;-69
2021/08/24 10:47:26;;;;;;;;;3.67;3.67;;;;;25.38;40.54;101606.91;5033329;28;48061;-68
2021/08/24 10:49:58;;;;;;;;;5.33;4.33;;;;;25.37;40.18;101614.19;5035021;28;45552;-67
2021/08/24 10:52:30;;;;;;;;;6.33;5.33;;;;;25.33;39.82;101610.69;5033470;28;45568;-68
2021/08/24 10:55:10;;;;;;;;;5.00;5.00;;;;;25.34;39.67;101623.34;5034849;28;45470;-69
2021/08/24 10:57:50;;;;;;;;;3.00;3.00;;;;;25.37;39.33;101621.44;5034870;28;45388;-69
2021/08/24 11:00:35;;;;;;;;;6.33;6.33;;;;;25.37;39.59;101613.28;5034877;28;45474;-69
2021/08/24 11:03:07;;;;;;;;;4.00;4.00;;;;;25.43;39.81;101619.44;5036867;28;44912;-70
2021/08/24 11:05:55;;;;;;;;;3.00;3.00;;;;;25.52;40.00;101608.19;5038986;28;45503;-68
2021/08/24 11:08:33;;;;;;;;;5.33;5.33;;;;;25.61;40.48;101607.03;5037526;28;46765;-70
2021/08/24 11:11:17;;;;;;;;;3.33;3.33;;;;;25.73;40.26;101595.69;5035216;28;45510;-69
2021/08/24 11:14:36;;;;;;;;;3.00;3.00;;;;;25.83;40.46;101590.75;5035544;28;45422;-73
2021/08/24 11:17:17;;;;;;;;;2.00;1.33;;;;;25.95;40.25;101594.91;5000913;28;45520;-74
2021/08/24 11:19:48;;;;;;;;;2.33;2.33;;;;;26.04;40.69;101589.16;5001844;28;46227;-68
2021/08/24 11:22:30;;;;;;;;;3.00;3.00;;;;;26.13;40.40;101586.06;5001897;28;45568;-71
2021/08/24 11:25:13;;;;;;;;;1.00;1.00;;;;;26.22;40.36;101584.84;5010852;28;45570;-71
2021/08/24 11:27:54;;;;;;;;;1.00;1.00;;;;;26.30;39.86;101579.97;5010399;28;45537;-69
2021/08/24 11:30:31;;;;;;;;;2.00;2.00;;;;;26.37;39.44;101580.63;5011878;28;45633;-70
2021/08/24 11:33:08;;;;;;;;;2.00;1.00;;;;;26.43;39.13;101584.97;5012226;28;45545;-71
2021/08/24 11:35:46;;;;;;;;;0.67;0.67;;;;;26.49;39.11;101585.59;5009817;28;45548;-69
2021/08/24 11:38:18;;;;;;;;;2.67;2.67;;;;;26.53;38.84;101587.25;5005722;28;45524;-69
2021/08/24 11:40:49;;;;;;;;;1.33;1.33;;;;;26.59;39.06;101593.47;4971996;28;46385;-70